sensor_id;sensor_type;location;lat;lon;timestamp;P1;durP1;ratioP1;P2;durP2;ratioP2
6955;SDS011;50345;51.136;16.886;2023-02-01T00:01:47;8.10;;;1.37;;
6955;SDS011;50345;51.136;16.886;2023-02-01T00:04:13;4.33;;;1.20;;
6955;SDS011;50345;51.136;16.886;2023-02-01T00:06:38;3.00;;;1.37;;
6955;SDS011;50345;51.136;16.886;2023-02-01T00:09:04;2.30;;;1.17;;
6955;SDS011;50345;51.136;16.886;2023-02-01T00:11:29;9.70;;;2.03;;
6955;SDS011;50345;51.136;16.886;2023-02-01T00:13:56;8.90;;;4.53;;
6955;SDS011;50345;51.136;16.886;2023-02-01T00:16:23;3.53;;;2.95;;
6955;SDS011;50345;51.136;16.886;2023-02-01T00:18:50;2.03;;;1.63;;
6955;SDS011;50345;51.136;16.886;2023-02-01T00:21:18;4.03;;;1.55;;
6955;SDS011;50345;51.136;16.886;2023-02-01T00:23:45;2.38;;;1.30;;
6955;SDS011;50345;51.136;16.886;2023-02-01T00:26:15;4.10;;;1.33;;
6955;SDS011;50345;51.136;16.886;2023-02-01T00:28:42;3.45;;;1.77;;
6955;SDS011;50345;51.136;16.886;2023-02-01T00:31:08;1.60;;;1.33;;
6955;SDS011;50345;51.136;16.886;2023-02-01T00:33:33;2.30;;;1.23;;
6955;SDS011;50345;51.136;16.886;2023-02-01T00:36:00;3.25;;;1.15;;
6955;SDS011;50345;51.136;16.886;2023-02-01T00:38:27;5.45;;;1.15;;
6955;SDS011;50345;51.136;16.886;2023-02-01T00:40:54;2.85;;;1.40;;
6955;SDS011;50345;51.136;16.886;2023-02-01T00:43:27;1.45;;;1.05;;
6955;SDS011;50345;51.136;16.886;2023-02-01T00:45:52;4.63;;;1.20;;
6955;SDS011;50345;51.136;16.886;2023-02-01T00:48:18;8.23;;;1.23;;
6955;SDS011;50345;51.136;16.886;2023-02-01T00:50:43;6.70;;;1.53;;
6955;SDS011;50345;51.136;16.886;2023-02-01T00:53:10;6.38;;;1.40;;
6955;SDS011;50345;51.136;16.886;2023-02-01T00:55:36;3.10;;;1.80;;
6955;SDS011;50345;51.136;16.886;2023-02-01T00:58:01;4.63;;;1.87;;
6955;SDS011;50345;51.136;16.886;2023-02-01T01:00:28;3.85;;;1.80;;
6955;SDS011;50345;51.136;16.886;2023-02-01T01:02:53;5.93;;;2.90;;
6955;SDS011;50345;51.136;16.886;2023-02-01T01:05:19;4.03;;;2.30;;
6955;SDS011;50345;51.136;16.886;2023-02-01T01:07:45;4.53;;;2.33;;
6955;SDS011;50345;51.136;16.886;2023-02-01T01:10:10;4.23;;;2.40;;
6955;SDS011;50345;51.136;16.886;2023-02-01T01:12:36;5.07;;;2.57;;
6955;SDS011;50345;51.136;16.886;2023-02-01T01:15:02;4.73;;;2.40;;
6955;SDS011;50345;51.136;16.886;2023-02-01T01:17:28;6.88;;;2.08;;
6955;SDS011;50345;51.136;16.886;2023-02-01T01:19:55;1.92;;;1.83;;
6955;SDS011;50345;51.136;16.886;2023-02-01T01:22:21;5.33;;;2.73;;
6955;SDS011;50345;51.136;16.886;2023-02-01T01:24:46;5.40;;;1.90;;
6955;SDS011;50345;51.136;16.886;2023-02-01T01:27:12;5.77;;;1.83;;
6955;SDS011;50345;51.136;16.886;2023-02-01T01:29:38;3.70;;;1.60;;
6955;SDS011;50345;51.136;16.886;2023-02-01T01:32:03;3.00;;;1.00;;
6955;SDS011;50345;51.136;16.886;2023-02-01T01:34:29;3.23;;;0.83;;
6955;SDS011;50345;51.136;16.886;2023-02-01T01:36:54;2.40;;;1.33;;
6955;SDS011;50345;51.136;16.886;2023-02-01T01:39:20;1.47;;;1.03;;
6955;SDS011;50345;51.136;16.886;2023-02-01T01:41:45;5.13;;;1.40;;
6955;SDS011;50345;51.136;16.886;2023-02-01T01:47:21;1.95;;;1.15;;
6955;SDS011;50345;51.136;16.886;2023-02-01T01:49:47;4.00;;;1.43;;
6955;SDS011;50345;51.136;16.886;2023-02-01T01:52:12;3.03;;;1.43;;
6955;SDS011;50345;51.136;16.886;2023-02-01T01:54:43;5.70;;;2.03;;
6955;SDS011;50345;51.136;16.886;2023-02-01T01:57:17;4.53;;;2.10;;
6955;SDS011;50345;51.136;16.886;2023-02-01T01:59:48;8.07;;;2.00;;
6955;SDS011;50345;51.136;16.886;2023-02-01T02:02:18;6.90;;;2.20;;
6955;SDS011;50345;51.136;16.886;2023-02-01T02:04:44;6.60;;;2.60;;
6955;SDS011;50345;51.136;16.886;2023-02-01T02:07:13;5.95;;;2.10;;
6955;SDS011;50345;51.136;16.886;2023-02-01T02:09:42;6.25;;;1.50;;
6955;SDS011;50345;51.136;16.886;2023-02-01T02:12:08;4.70;;;2.37;;
6955;SDS011;50345;51.136;16.886;2023-02-01T02:14:34;4.80;;;2.80;;
6955;SDS011;50345;51.136;16.886;2023-02-01T02:17:06;6.97;;;2.95;;
6955;SDS011;50345;51.136;16.886;2023-02-01T02:19:50;10.10;;;2.90;;
6955;SDS011;50345;51.136;16.886;2023-02-01T02:22:55;7.45;;;3.45;;
6955;SDS011;50345;51.136;16.886;2023-02-01T02:29:02;4.93;;;2.63;;
6955;SDS011;50345;51.136;16.886;2023-02-01T02:31:46;5.18;;;2.40;;
6955;SDS011;50345;51.136;16.886;2023-02-01T02:34:34;8.85;;;2.65;;
6955;SDS011;50345;51.136;16.886;2023-02-01T02:43:09;5.20;;;3.00;;
6955;SDS011;50345;51.136;16.886;2023-02-01T02:46:33;7.68;;;3.92;;
6955;SDS011;50345;51.136;16.886;2023-02-01T02:49:18;10.18;;;3.38;;
6955;SDS011;50345;51.136;16.886;2023-02-01T02:52:02;6.85;;;3.55;;
6955;SDS011;50345;51.136;16.886;2023-02-01T02:54:58;4.90;;;2.30;;
6955;SDS011;50345;51.136;16.886;2023-02-01T03:00:18;11.73;;;2.20;;
6955;SDS011;50345;51.136;16.886;2023-02-01T03:03:06;7.30;;;2.78;;
6955;SDS011;50345;51.136;16.886;2023-02-01T03:05:50;6.78;;;2.70;;
6955;SDS011;50345;51.136;16.886;2023-02-01T03:08:21;7.07;;;4.07;;
6955;SDS011;50345;51.136;16.886;2023-02-01T03:11:10;4.85;;;3.20;;
6955;SDS011;50345;51.136;16.886;2023-02-01T03:21:32;10.57;;;2.63;;
6955;SDS011;50345;51.136;16.886;2023-02-01T03:24:03;5.05;;;2.92;;
6955;SDS011;50345;51.136;16.886;2023-02-01T03:26:34;12.40;;;3.78;;
6955;SDS011;50345;51.136;16.886;2023-02-01T03:29:14;9.88;;;3.25;;
6955;SDS011;50345;51.136;16.886;2023-02-01T03:31:43;6.53;;;3.17;;
6955;SDS011;50345;51.136;16.886;2023-02-01T03:34:10;10.63;;;3.10;;
6955;SDS011;50345;51.136;16.886;2023-02-01T03:36:38;10.00;;;3.28;;
6955;SDS011;50345;51.136;16.886;2023-02-01T03:39:15;9.65;;;2.42;;
6955;SDS011;50345;51.136;16.886;2023-02-01T03:44:45;12.80;;;3.33;;
6955;SDS011;50345;51.136;16.886;2023-02-01T03:47:17;5.68;;;2.15;;
6955;SDS011;50345;51.136;16.886;2023-02-01T03:49:47;6.32;;;3.05;;
6955;SDS011;50345;51.136;16.886;2023-02-01T03:52:39;8.70;;;3.20;;
6955;SDS011;50345;51.136;16.886;2023-02-01T03:55:09;14.40;;;2.92;;
6955;SDS011;50345;51.136;16.886;2023-02-01T03:57:44;7.82;;;3.15;;
6955;SDS011;50345;51.136;16.886;2023-02-01T04:00:17;10.10;;;3.17;;
6955;SDS011;50345;51.136;16.886;2023-02-01T04:02:48;9.65;;;2.60;;
6955;SDS011;50345;51.136;16.886;2023-02-01T04:05:14;9.23;;;3.13;;
6955;SDS011;50345;51.136;16.886;2023-02-01T04:07:40;8.50;;;2.88;;
6955;SDS011;50345;51.136;16.886;2023-02-01T04:10:06;5.10;;;3.13;;
6955;SDS011;50345;51.136;16.886;2023-02-01T04:12:32;5.38;;;3.35;;
6955;SDS011;50345;51.136;16.886;2023-02-01T04:14:57;9.50;;;3.17;;
6955;SDS011;50345;51.136;16.886;2023-02-01T04:17:23;6.33;;;2.30;;
6955;SDS011;50345;51.136;16.886;2023-02-01T04:19:49;12.27;;;2.93;;
6955;SDS011;50345;51.136;16.886;2023-02-01T04:22:14;2.90;;;2.50;;
6955;SDS011;50345;51.136;16.886;2023-02-01T04:24:40;6.27;;;2.47;;
6955;SDS011;50345;51.136;16.886;2023-02-01T04:27:06;10.23;;;3.43;;
6955;SDS011;50345;51.136;16.886;2023-02-01T04:29:31;5.57;;;2.63;;
6955;SDS011;50345;51.136;16.886;2023-02-01T04:31:57;8.60;;;2.27;;
6955;SDS011;50345;51.136;16.886;2023-02-01T04:34:22;10.97;;;2.80;;
6955;SDS011;50345;51.136;16.886;2023-02-01T04:36:49;6.57;;;2.00;;
6955;SDS011;50345;51.136;16.886;2023-02-01T04:39:15;6.68;;;3.85;;
6955;SDS011;50345;51.136;16.886;2023-02-01T04:41:41;3.67;;;2.50;;
6955;SDS011;50345;51.136;16.886;2023-02-01T04:44:08;12.70;;;2.87;;
6955;SDS011;50345;51.136;16.886;2023-02-01T04:46:39;8.10;;;2.65;;
6955;SDS011;50345;51.136;16.886;2023-02-01T04:49:04;4.00;;;2.10;;
6955;SDS011;50345;51.136;16.886;2023-02-01T04:51:30;2.23;;;1.97;;
6955;SDS011;50345;51.136;16.886;2023-02-01T04:53:56;6.70;;;2.83;;
6955;SDS011;50345;51.136;16.886;2023-02-01T04:56:21;8.40;;;3.00;;
6955;SDS011;50345;51.136;16.886;2023-02-01T04:58:47;9.17;;;2.93;;
6955;SDS011;50345;51.136;16.886;2023-02-01T05:01:13;13.02;;;2.03;;
6955;SDS011;50345;51.136;16.886;2023-02-01T05:03:38;7.00;;;2.90;;
6955;SDS011;50345;51.136;16.886;2023-02-01T05:06:04;11.20;;;2.77;;
6955;SDS011;50345;51.136;16.886;2023-02-01T05:08:30;4.73;;;2.60;;
6955;SDS011;50345;51.136;16.886;2023-02-01T05:10:56;7.55;;;2.47;;
6955;SDS011;50345;51.136;16.886;2023-02-01T05:13:22;14.27;;;3.30;;
6955;SDS011;50345;51.136;16.886;2023-02-01T05:16:13;10.68;;;2.30;;
6955;SDS011;50345;51.136;16.886;2023-02-01T05:18:39;7.70;;;2.50;;
6955;SDS011;50345;51.136;16.886;2023-02-01T05:21:05;7.10;;;2.60;;
6955;SDS011;50345;51.136;16.886;2023-02-01T05:23:30;6.90;;;2.40;;
6955;SDS011;50345;51.136;16.886;2023-02-01T05:25:59;8.90;;;2.67;;
6955;SDS011;50345;51.136;16.886;2023-02-01T05:28:26;8.90;;;2.60;;
6955;SDS011;50345;51.136;16.886;2023-02-01T05:30:52;9.30;;;2.72;;
6955;SDS011;50345;51.136;16.886;2023-02-01T05:33:18;7.73;;;2.70;;
6955;SDS011;50345;51.136;16.886;2023-02-01T05:35:43;5.80;;;3.00;;
6955;SDS011;50345;51.136;16.886;2023-02-01T05:38:09;7.70;;;2.80;;
6955;SDS011;50345;51.136;16.886;2023-02-01T05:40:34;6.20;;;2.13;;
6955;SDS011;50345;51.136;16.886;2023-02-01T05:43:00;5.57;;;2.73;;
6955;SDS011;50345;51.136;16.886;2023-02-01T05:45:25;10.47;;;2.80;;
6955;SDS011;50345;51.136;16.886;2023-02-01T05:47:51;8.17;;;4.10;;
6955;SDS011;50345;51.136;16.886;2023-02-01T05:50:16;8.83;;;3.10;;
6955;SDS011;50345;51.136;16.886;2023-02-01T05:52:42;13.88;;;3.45;;
6955;SDS011;50345;51.136;16.886;2023-02-01T05:55:08;10.90;;;2.87;;
6955;SDS011;50345;51.136;16.886;2023-02-01T05:57:34;7.57;;;2.73;;
6955;SDS011;50345;51.136;16.886;2023-02-01T05:59:59;8.57;;;2.90;;
6955;SDS011;50345;51.136;16.886;2023-02-01T06:02:25;8.93;;;2.75;;
6955;SDS011;50345;51.136;16.886;2023-02-01T06:04:51;7.83;;;2.83;;
6955;SDS011;50345;51.136;16.886;2023-02-01T06:07:16;5.20;;;2.70;;
6955;SDS011;50345;51.136;16.886;2023-02-01T06:09:42;4.50;;;2.00;;
6955;SDS011;50345;51.136;16.886;2023-02-01T06:12:08;6.20;;;2.97;;
6955;SDS011;50345;51.136;16.886;2023-02-01T06:14:33;10.10;;;2.87;;
6955;SDS011;50345;51.136;16.886;2023-02-01T06:16:59;8.93;;;2.77;;
6955;SDS011;50345;51.136;16.886;2023-02-01T06:19:25;14.57;;;3.70;;
6955;SDS011;50345;51.136;16.886;2023-02-01T06:21:50;9.27;;;3.40;;
6955;SDS011;50345;51.136;16.886;2023-02-01T06:24:16;6.23;;;2.60;;
6955;SDS011;50345;51.136;16.886;2023-02-01T06:26:42;8.77;;;3.60;;
6955;SDS011;50345;51.136;16.886;2023-02-01T06:29:11;12.43;;;3.10;;
6955;SDS011;50345;51.136;16.886;2023-02-01T06:31:37;8.40;;;2.45;;
6955;SDS011;50345;51.136;16.886;2023-02-01T06:34:03;6.90;;;3.13;;
6955;SDS011;50345;51.136;16.886;2023-02-01T06:36:29;10.40;;;2.80;;
6955;SDS011;50345;51.136;16.886;2023-02-01T06:38:55;7.37;;;2.33;;
6955;SDS011;50345;51.136;16.886;2023-02-01T06:41:21;8.77;;;2.53;;
6955;SDS011;50345;51.136;16.886;2023-02-01T06:43:47;10.52;;;2.70;;
6955;SDS011;50345;51.136;16.886;2023-02-01T06:46:13;3.70;;;2.10;;
6955;SDS011;50345;51.136;16.886;2023-02-01T06:48:39;9.10;;;3.03;;
6955;SDS011;50345;51.136;16.886;2023-02-01T06:51:05;3.90;;;2.77;;
6955;SDS011;50345;51.136;16.886;2023-02-01T06:53:31;7.77;;;3.00;;
6955;SDS011;50345;51.136;16.886;2023-02-01T06:56:01;10.43;;;3.10;;
6955;SDS011;50345;51.136;16.886;2023-02-01T06:58:28;8.70;;;3.35;;
6955;SDS011;50345;51.136;16.886;2023-02-01T07:00:55;7.18;;;2.70;;
6955;SDS011;50345;51.136;16.886;2023-02-01T07:03:21;8.77;;;2.93;;
6955;SDS011;50345;51.136;16.886;2023-02-01T07:05:46;5.80;;;3.10;;
6955;SDS011;50345;51.136;16.886;2023-02-01T07:08:12;7.70;;;2.67;;
6955;SDS011;50345;51.136;16.886;2023-02-01T07:10:37;5.47;;;2.60;;
6955;SDS011;50345;51.136;16.886;2023-02-01T07:13:03;10.17;;;3.23;;
6955;SDS011;50345;51.136;16.886;2023-02-01T07:15:29;7.93;;;3.10;;
6955;SDS011;50345;51.136;16.886;2023-02-01T07:17:55;5.27;;;2.90;;
6955;SDS011;50345;51.136;16.886;2023-02-01T07:20:21;11.37;;;3.57;;
6955;SDS011;50345;51.136;16.886;2023-02-01T07:22:46;9.30;;;3.77;;
6955;SDS011;50345;51.136;16.886;2023-02-01T07:25:12;12.77;;;3.23;;
6955;SDS011;50345;51.136;16.886;2023-02-01T07:27:37;7.10;;;3.20;;
6955;SDS011;50345;51.136;16.886;2023-02-01T07:30:03;12.00;;;3.10;;
6955;SDS011;50345;51.136;16.886;2023-02-01T07:32:30;9.98;;;4.65;;
6955;SDS011;50345;51.136;16.886;2023-02-01T07:34:56;8.70;;;3.33;;
6955;SDS011;50345;51.136;16.886;2023-02-01T07:37:22;9.05;;;3.72;;
6955;SDS011;50345;51.136;16.886;2023-02-01T07:39:49;5.75;;;3.88;;
6955;SDS011;50345;51.136;16.886;2023-02-01T07:42:17;8.95;;;3.05;;
6955;SDS011;50345;51.136;16.886;2023-02-01T07:44:43;7.47;;;3.58;;
6955;SDS011;50345;51.136;16.886;2023-02-01T07:47:08;3.40;;;2.40;;
6955;SDS011;50345;51.136;16.886;2023-02-01T07:49:34;9.13;;;3.20;;
6955;SDS011;50345;51.136;16.886;2023-02-01T07:52:00;9.27;;;3.00;;
6955;SDS011;50345;51.136;16.886;2023-02-01T07:54:25;5.03;;;2.63;;
6955;SDS011;50345;51.136;16.886;2023-02-01T07:56:52;9.80;;;2.80;;
6955;SDS011;50345;51.136;16.886;2023-02-01T07:59:17;10.20;;;3.55;;
6955;SDS011;50345;51.136;16.886;2023-02-01T08:01:43;12.27;;;3.73;;
6955;SDS011;50345;51.136;16.886;2023-02-01T08:04:09;10.80;;;3.70;;
6955;SDS011;50345;51.136;16.886;2023-02-01T08:06:37;7.40;;;2.88;;
6955;SDS011;50345;51.136;16.886;2023-02-01T08:09:03;8.63;;;3.17;;
6955;SDS011;50345;51.136;16.886;2023-02-01T08:11:30;7.20;;;2.90;;
6955;SDS011;50345;51.136;16.886;2023-02-01T08:13:56;6.75;;;2.92;;
6955;SDS011;50345;51.136;16.886;2023-02-01T08:16:22;9.75;;;3.30;;
6955;SDS011;50345;51.136;16.886;2023-02-01T08:18:49;5.95;;;2.90;;
6955;SDS011;50345;51.136;16.886;2023-02-01T08:21:16;7.00;;;3.83;;
6955;SDS011;50345;51.136;16.886;2023-02-01T08:23:47;4.85;;;3.25;;
6955;SDS011;50345;51.136;16.886;2023-02-01T08:26:14;3.58;;;2.92;;
6955;SDS011;50345;51.136;16.886;2023-02-01T08:28:55;10.73;;;3.78;;
6955;SDS011;50345;51.136;16.886;2023-02-01T08:31:23;14.05;;;3.50;;
6955;SDS011;50345;51.136;16.886;2023-02-01T08:33:52;7.13;;;3.28;;
6955;SDS011;50345;51.136;16.886;2023-02-01T08:36:22;6.40;;;3.08;;
6955;SDS011;50345;51.136;16.886;2023-02-01T08:38:48;7.53;;;4.00;;
6955;SDS011;50345;51.136;16.886;2023-02-01T08:41:22;10.57;;;2.90;;
6955;SDS011;50345;51.136;16.886;2023-02-01T08:43:49;4.47;;;2.75;;
6955;SDS011;50345;51.136;16.886;2023-02-01T08:46:15;8.10;;;3.38;;
6955;SDS011;50345;51.136;16.886;2023-02-01T08:48:41;8.07;;;3.10;;
6955;SDS011;50345;51.136;16.886;2023-02-01T08:51:08;6.93;;;3.37;;
6955;SDS011;50345;51.136;16.886;2023-02-01T08:53:36;11.07;;;2.90;;
6955;SDS011;50345;51.136;16.886;2023-02-01T08:56:03;8.90;;;3.85;;
6955;SDS011;50345;51.136;16.886;2023-02-01T08:58:29;6.47;;;3.60;;
6955;SDS011;50345;51.136;16.886;2023-02-01T09:00:55;10.30;;;3.37;;
6955;SDS011;50345;51.136;16.886;2023-02-01T09:03:20;8.90;;;3.70;;
6955;SDS011;50345;51.136;16.886;2023-02-01T09:05:46;4.50;;;2.70;;
6955;SDS011;50345;51.136;16.886;2023-02-01T09:08:12;5.32;;;3.00;;
6955;SDS011;50345;51.136;16.886;2023-02-01T09:10:40;8.63;;;3.40;;
6955;SDS011;50345;51.136;16.886;2023-02-01T09:13:07;8.63;;;3.20;;
6955;SDS011;50345;51.136;16.886;2023-02-01T09:15:33;8.68;;;3.25;;
6955;SDS011;50345;51.136;16.886;2023-02-01T09:17:58;7.27;;;2.53;;
6955;SDS011;50345;51.136;16.886;2023-02-01T09:20:24;12.57;;;4.43;;
6955;SDS011;50345;51.136;16.886;2023-02-01T09:22:51;6.50;;;2.63;;
6955;SDS011;50345;51.136;16.886;2023-02-01T09:25:17;8.30;;;3.30;;
6955;SDS011;50345;51.136;16.886;2023-02-01T09:27:43;7.40;;;2.50;;
6955;SDS011;50345;51.136;16.886;2023-02-01T09:30:09;6.97;;;2.70;;
6955;SDS011;50345;51.136;16.886;2023-02-01T09:32:35;9.07;;;2.63;;
6955;SDS011;50345;51.136;16.886;2023-02-01T09:35:01;4.63;;;3.10;;
6955;SDS011;50345;51.136;16.886;2023-02-01T09:37:27;4.33;;;2.10;;
6955;SDS011;50345;51.136;16.886;2023-02-01T09:39:52;8.07;;;2.33;;
6955;SDS011;50345;51.136;16.886;2023-02-01T09:48:35;5.30;;;2.90;;
6955;SDS011;50345;51.136;16.886;2023-02-01T09:50:57;5.10;;;2.00;;
6955;SDS011;50345;51.136;16.886;2023-02-01T09:53:26;5.57;;;3.20;;
6955;SDS011;50345;51.136;16.886;2023-02-01T09:56:12;4.05;;;2.90;;
6955;SDS011;50345;51.136;16.886;2023-02-01T09:58:55;3.50;;;2.35;;
6955;SDS011;50345;51.136;16.886;2023-02-01T10:01:58;6.13;;;2.30;;
6955;SDS011;50345;51.136;16.886;2023-02-01T10:04:25;5.70;;;3.20;;
6955;SDS011;50345;51.136;16.886;2023-02-01T10:07:02;6.90;;;3.70;;
6955;SDS011;50345;51.136;16.886;2023-02-01T10:09:58;3.28;;;2.78;;
6955;SDS011;50345;51.136;16.886;2023-02-01T10:12:36;7.20;;;3.28;;
6955;SDS011;50345;51.136;16.886;2023-02-01T10:18:06;4.60;;;2.85;;
6955;SDS011;50345;51.136;16.886;2023-02-01T10:23:31;4.53;;;2.75;;
6955;SDS011;50345;51.136;16.886;2023-02-01T10:28:46;2.60;;;1.85;;
6955;SDS011;50345;51.136;16.886;2023-02-01T10:31:31;4.85;;;2.70;;
6955;SDS011;50345;51.136;16.886;2023-02-01T10:34:21;6.43;;;3.28;;
6955;SDS011;50345;51.136;16.886;2023-02-01T10:37:11;2.55;;;2.17;;
6955;SDS011;50345;51.136;16.886;2023-02-01T10:39:49;5.13;;;2.70;;
6955;SDS011;50345;51.136;16.886;2023-02-01T10:42:18;9.27;;;3.38;;
6955;SDS011;50345;51.136;16.886;2023-02-01T10:44:50;8.50;;;2.65;;
6955;SDS011;50345;51.136;16.886;2023-02-01T10:47:15;3.83;;;2.50;;
6955;SDS011;50345;51.136;16.886;2023-02-01T10:52:44;8.80;;;3.00;;
6955;SDS011;50345;51.136;16.886;2023-02-01T10:55:32;4.85;;;3.00;;
6955;SDS011;50345;51.136;16.886;2023-02-01T10:57:58;6.47;;;2.95;;
6955;SDS011;50345;51.136;16.886;2023-02-01T11:00:26;5.90;;;3.20;;
6955;SDS011;50345;51.136;16.886;2023-02-01T11:02:53;3.95;;;2.97;;
6955;SDS011;50345;51.136;16.886;2023-02-01T11:05:20;4.43;;;2.13;;
6955;SDS011;50345;51.136;16.886;2023-02-01T11:07:51;6.18;;;2.80;;
6955;SDS011;50345;51.136;16.886;2023-02-01T11:10:34;5.18;;;3.25;;
6955;SDS011;50345;51.136;16.886;2023-02-01T11:13:17;7.43;;;3.17;;
6955;SDS011;50345;51.136;16.886;2023-02-01T11:15:47;3.60;;;2.83;;
6955;SDS011;50345;51.136;16.886;2023-02-01T11:18:25;3.65;;;2.60;;
6955;SDS011;50345;51.136;16.886;2023-02-01T11:20:54;8.07;;;4.20;;
6955;SDS011;50345;51.136;16.886;2023-02-01T11:23:27;6.60;;;2.70;;
6955;SDS011;50345;51.136;16.886;2023-02-01T11:26:01;3.78;;;2.30;;
6955;SDS011;50345;51.136;16.886;2023-02-01T11:28:37;2.90;;;2.03;;
6955;SDS011;50345;51.136;16.886;2023-02-01T11:31:05;7.80;;;2.35;;
6955;SDS011;50345;51.136;16.886;2023-02-01T11:33:34;4.50;;;2.10;;
6955;SDS011;50345;51.136;16.886;2023-02-01T11:36:06;4.35;;;2.13;;
6955;SDS011;50345;51.136;16.886;2023-02-01T11:38:34;3.28;;;2.25;;
6955;SDS011;50345;51.136;16.886;2023-02-01T11:41:10;2.95;;;2.28;;
6955;SDS011;50345;51.136;16.886;2023-02-01T11:43:38;8.25;;;2.58;;
6955;SDS011;50345;51.136;16.886;2023-02-01T11:46:17;4.88;;;2.00;;
6955;SDS011;50345;51.136;16.886;2023-02-01T11:48:49;4.70;;;2.47;;
6955;SDS011;50345;51.136;16.886;2023-02-01T11:54:18;2.55;;;1.75;;
6955;SDS011;50345;51.136;16.886;2023-02-01T12:03:09;6.97;;;2.83;;
6955;SDS011;50345;51.136;16.886;2023-02-01T12:05:59;3.38;;;3.00;;
6955;SDS011;50345;51.136;16.886;2023-02-01T12:14:20;5.10;;;2.83;;
6955;SDS011;50345;51.136;16.886;2023-02-01T12:19:25;4.03;;;2.25;;
6955;SDS011;50345;51.136;16.886;2023-02-01T12:27:42;4.05;;;1.95;;
6955;SDS011;50345;51.136;16.886;2023-02-01T12:33:22;4.88;;;2.85;;
6955;SDS011;50345;51.136;16.886;2023-02-01T12:47:00;2.92;;;2.22;;
6955;SDS011;50345;51.136;16.886;2023-02-01T12:49:45;3.80;;;1.70;;
6955;SDS011;50345;51.136;16.886;2023-02-01T12:52:40;2.42;;;2.22;;
6955;SDS011;50345;51.136;16.886;2023-02-01T12:58:12;5.38;;;2.00;;
6955;SDS011;50345;51.136;16.886;2023-02-01T13:05:57;3.40;;;2.60;;
6955;SDS011;50345;51.136;16.886;2023-02-01T13:08:36;2.92;;;2.50;;
6955;SDS011;50345;51.136;16.886;2023-02-01T13:11:13;4.63;;;2.65;;
6955;SDS011;50345;51.136;16.886;2023-02-01T13:13:47;3.92;;;3.47;;
6955;SDS011;50345;51.136;16.886;2023-02-01T13:16:15;2.80;;;2.60;;
6955;SDS011;50345;51.136;16.886;2023-02-01T13:18:56;3.67;;;2.95;;
6955;SDS011;50345;51.136;16.886;2023-02-01T13:21:36;4.78;;;2.70;;
6955;SDS011;50345;51.136;16.886;2023-02-01T13:24:07;6.10;;;2.70;;
6955;SDS011;50345;51.136;16.886;2023-02-01T13:27:01;4.05;;;2.03;;
6955;SDS011;50345;51.136;16.886;2023-02-01T13:29:28;2.63;;;2.20;;
6955;SDS011;50345;51.136;16.886;2023-02-01T13:34:56;6.00;;;2.55;;
6955;SDS011;50345;51.136;16.886;2023-02-01T13:40:37;4.88;;;1.98;;
6955;SDS011;50345;51.136;16.886;2023-02-01T13:43:11;5.60;;;5.18;;
6955;SDS011;50345;51.136;16.886;2023-02-01T13:45:42;3.30;;;1.88;;
6955;SDS011;50345;51.136;16.886;2023-02-01T13:48:17;4.45;;;2.13;;
6955;SDS011;50345;51.136;16.886;2023-02-01T13:51:02;2.95;;;2.40;;
6955;SDS011;50345;51.136;16.886;2023-02-01T13:53:30;4.25;;;2.70;;
6955;SDS011;50345;51.136;16.886;2023-02-01T13:55:59;4.65;;;2.00;;
6955;SDS011;50345;51.136;16.886;2023-02-01T13:58:30;2.72;;;1.67;;
6955;SDS011;50345;51.136;16.886;2023-02-01T14:03:55;5.50;;;2.45;;
6955;SDS011;50345;51.136;16.886;2023-02-01T14:11:46;4.95;;;2.30;;
6955;SDS011;50345;51.136;16.886;2023-02-01T14:16:42;5.57;;;3.33;;
6955;SDS011;50345;51.136;16.886;2023-02-01T14:19:24;5.55;;;5.05;;
6955;SDS011;50345;51.136;16.886;2023-02-01T14:21:54;4.22;;;2.70;;
6955;SDS011;50345;51.136;16.886;2023-02-01T14:24:25;7.10;;;4.90;;
6955;SDS011;50345;51.136;16.886;2023-02-01T14:26:55;4.75;;;3.13;;
6955;SDS011;50345;51.136;16.886;2023-02-01T14:32:06;4.93;;;3.50;;
6955;SDS011;50345;51.136;16.886;2023-02-01T14:42:33;6.33;;;3.20;;
6955;SDS011;50345;51.136;16.886;2023-02-01T14:55:41;5.40;;;3.38;;
6955;SDS011;50345;51.136;16.886;2023-02-01T15:00:57;7.85;;;3.13;;
6955;SDS011;50345;51.136;16.886;2023-02-01T15:03:44;9.32;;;2.75;;
6955;SDS011;50345;51.136;16.886;2023-02-01T15:06:24;3.42;;;2.00;;
6955;SDS011;50345;51.136;16.886;2023-02-01T15:09:07;2.17;;;1.67;;
6955;SDS011;50345;51.136;16.886;2023-02-01T15:14:36;4.38;;;2.65;;
6955;SDS011;50345;51.136;16.886;2023-02-01T15:19:52;5.03;;;2.60;;
6955;SDS011;50345;51.136;16.886;2023-02-01T15:22:19;7.68;;;6.95;;
6955;SDS011;50345;51.136;16.886;2023-02-01T15:24:51;5.40;;;3.22;;
6955;SDS011;50345;51.136;16.886;2023-02-01T15:27:21;7.80;;;4.05;;
6955;SDS011;50345;51.136;16.886;2023-02-01T15:29:47;3.80;;;2.60;;
6955;SDS011;50345;51.136;16.886;2023-02-01T15:32:32;4.10;;;2.13;;
6955;SDS011;50345;51.136;16.886;2023-02-01T15:35:00;4.05;;;3.25;;
6955;SDS011;50345;51.136;16.886;2023-02-01T15:37:26;5.82;;;2.60;;
6955;SDS011;50345;51.136;16.886;2023-02-01T15:42:47;5.82;;;3.20;;
6955;SDS011;50345;51.136;16.886;2023-02-01T15:45:18;7.72;;;4.28;;
6955;SDS011;50345;51.136;16.886;2023-02-01T15:47:48;4.40;;;2.33;;
6955;SDS011;50345;51.136;16.886;2023-02-01T15:50:16;2.78;;;2.40;;
6955;SDS011;50345;51.136;16.886;2023-02-01T15:52:45;5.15;;;3.88;;
6955;SDS011;50345;51.136;16.886;2023-02-01T15:55:55;3.85;;;1.95;;
6955;SDS011;50345;51.136;16.886;2023-02-01T15:58:06;6.75;;;2.85;;
6955;SDS011;50345;51.136;16.886;2023-02-01T16:00:40;4.72;;;2.80;;
6955;SDS011;50345;51.136;16.886;2023-02-01T16:03:23;4.40;;;2.10;;
6955;SDS011;50345;51.136;16.886;2023-02-01T16:06:00;4.85;;;3.20;;
6955;SDS011;50345;51.136;16.886;2023-02-01T16:08:28;4.25;;;3.55;;
6955;SDS011;50345;51.136;16.886;2023-02-01T16:13:34;8.05;;;3.45;;
6955;SDS011;50345;51.136;16.886;2023-02-01T16:16:00;5.90;;;3.15;;
6955;SDS011;50345;51.136;16.886;2023-02-01T16:18:27;3.20;;;2.70;;
6955;SDS011;50345;51.136;16.886;2023-02-01T16:20:52;2.90;;;2.60;;
6955;SDS011;50345;51.136;16.886;2023-02-01T16:23:18;4.00;;;2.40;;
6955;SDS011;50345;51.136;16.886;2023-02-01T16:25:45;4.72;;;2.30;;
6955;SDS011;50345;51.136;16.886;2023-02-01T16:28:11;10.82;;;3.40;;
6955;SDS011;50345;51.136;16.886;2023-02-01T16:30:37;7.13;;;3.70;;
6955;SDS011;50345;51.136;16.886;2023-02-01T16:33:03;6.13;;;4.53;;
6955;SDS011;50345;51.136;16.886;2023-02-01T16:35:36;4.22;;;3.05;;
6955;SDS011;50345;51.136;16.886;2023-02-01T16:38:10;5.70;;;3.75;;
6955;SDS011;50345;51.136;16.886;2023-02-01T16:40:38;6.38;;;3.30;;
6955;SDS011;50345;51.136;16.886;2023-02-01T16:43:23;3.47;;;3.17;;
6955;SDS011;50345;51.136;16.886;2023-02-01T16:45:51;6.63;;;4.50;;
6955;SDS011;50345;51.136;16.886;2023-02-01T16:50:52;6.80;;;2.95;;
6955;SDS011;50345;51.136;16.886;2023-02-01T16:53:20;10.05;;;7.47;;
6955;SDS011;50345;51.136;16.886;2023-02-01T16:55:46;7.30;;;4.45;;
6955;SDS011;50345;51.136;16.886;2023-02-01T16:58:14;5.25;;;3.95;;
6955;SDS011;50345;51.136;16.886;2023-02-01T17:00:41;7.38;;;4.50;;
6955;SDS011;50345;51.136;16.886;2023-02-01T17:03:07;9.52;;;4.80;;
6955;SDS011;50345;51.136;16.886;2023-02-01T17:05:32;8.43;;;4.57;;
6955;SDS011;50345;51.136;16.886;2023-02-01T17:08:01;6.68;;;4.20;;
6955;SDS011;50345;51.136;16.886;2023-02-01T17:10:29;7.82;;;4.35;;
6955;SDS011;50345;51.136;16.886;2023-02-01T17:12:55;12.32;;;7.55;;
6955;SDS011;50345;51.136;16.886;2023-02-01T17:15:22;9.20;;;5.70;;
6955;SDS011;50345;51.136;16.886;2023-02-01T17:17:49;14.40;;;8.55;;
6955;SDS011;50345;51.136;16.886;2023-02-01T17:20:20;10.65;;;7.55;;
6955;SDS011;50345;51.136;16.886;2023-02-01T17:22:48;11.73;;;7.05;;
6955;SDS011;50345;51.136;16.886;2023-02-01T17:25:18;21.77;;;9.75;;
6955;SDS011;50345;51.136;16.886;2023-02-01T17:27:46;15.98;;;9.93;;